sensor_id;sensor_type;location;lat;lon;timestamp;temperature;humidity
15143;DHT22;7672;50.834;6.286;2024-03-22T00:01:49;13.80;99.90
15143;DHT22;7672;50.834;6.286;2024-03-22T00:04:16;13.80;99.90
15143;DHT22;7672;50.834;6.286;2024-03-22T00:06:44;13.80;99.90
15143;DHT22;7672;50.834;6.286;2024-03-22T00:09:12;13.80;99.90
15143;DHT22;7672;50.834;6.286;2024-03-22T00:11:42;13.80;99.90
15143;DHT22;7672;50.834;6.286;2024-03-22T00:14:09;13.90;99.90
15143;DHT22;7672;50.834;6.286;2024-03-22T00:16:37;13.90;99.90
15143;DHT22;7672;50.834;6.286;2024-03-22T00:19:04;13.90;99.90
15143;DHT22;7672;50.834;6.286;2024-03-22T00:21:30;13.90;99.90
15143;DHT22;7672;50.834;6.286;2024-03-22T00:23:57;13.90;99.90
15143;DHT22;7672;50.834;6.286;2024-03-22T00:26:24;13.90;99.90
15143;DHT22;7672;50.834;6.286;2024-03-22T00:28:50;13.90;99.90
15143;DHT22;7672;50.834;6.286;2024-03-22T00:31:16;14.00;99.90
15143;DHT22;7672;50.834;6.286;2024-03-22T00:33:43;13.90;99.90
15143;DHT22;7672;50.834;6.286;2024-03-22T00:36:09;14.00;99.90
15143;DHT22;7672;50.834;6.286;2024-03-22T00:38:36;14.00;99.90
15143;DHT22;7672;50.834;6.286;2024-03-22T00:41:02;14.00;99.90
15143;DHT22;7672;50.834;6.286;2024-03-22T00:43:28;14.00;99.90
15143;DHT22;7672;50.834;6.286;2024-03-22T00:45:54;14.00;99.90
15143;DHT22;7672;50.834;6.286;2024-03-22T00:48:20;14.00;99.90
15143;DHT22;7672;50.834;6.286;2024-03-22T00:50:46;14.10;99.90
15143;DHT22;7672;50.834;6.286;2024-03-22T00:53:12;14.10;99.90
15143;DHT22;7672;50.834;6.286;2024-03-22T00:55:38;14.10;99.90
15143;DHT22;7672;50.834;6.286;2024-03-22T00:58:04;14.10;99.90
15143;DHT22;7672;50.834;6.286;2024-03-22T01:00:31;14.10;99.90
15143;DHT22;7672;50.834;6.286;2024-03-22T01:02:57;14.10;99.90
15143;DHT22;7672;50.834;6.286;2024-03-22T01:05:23;14.10;99.90
15143;DHT22;7672;50.834;6.286;2024-03-22T01:07:49;14.10;99.90
15143;DHT22;7672;50.834;6.286;2024-03-22T01:10:15;14.10;99.90
15143;DHT22;7672;50.834;6.286;2024-03-22T01:12:41;14.10;99.90
15143;DHT22;7672;50.834;6.286;2024-03-22T01:15:08;14.10;99.90
15143;DHT22;7672;50.834;6.286;2024-03-22T01:17:35;14.20;99.90
15143;DHT22;7672;50.834;6.286;2024-03-22T01:20:02;14.30;99.90
15143;DHT22;7672;50.834;6.286;2024-03-22T01:22:29;14.20;99.90
15143;DHT22;7672;50.834;6.286;2024-03-22T01:24:55;14.20;99.90
15143;DHT22;7672;50.834;6.286;2024-03-22T01:27:21;14.20;99.90
15143;DHT22;7672;50.834;6.286;2024-03-22T01:29:47;14.20;99.90
15143;DHT22;7672;50.834;6.286;2024-03-22T01:32:13;14.30;99.90
15143;DHT22;7672;50.834;6.286;2024-03-22T01:34:39;14.30;99.90
15143;DHT22;7672;50.834;6.286;2024-03-22T01:37:06;14.30;99.90
15143;DHT22;7672;50.834;6.286;2024-03-22T01:39:32;14.30;99.90
15143;DHT22;7672;50.834;6.286;2024-03-22T01:41:58;14.40;99.90
15143;DHT22;7672;50.834;6.286;2024-03-22T01:44:28;14.40;99.90
15143;DHT22;7672;50.834;6.286;2024-03-22T01:46:56;14.40;99.90
15143;DHT22;7672;50.834;6.286;2024-03-22T01:49:24;14.40;99.90
15143;DHT22;7672;50.834;6.286;2024-03-22T01:51:52;14.40;99.90
15143;DHT22;7672;50.834;6.286;2024-03-22T01:54:20;14.40;99.90
15143;DHT22;7672;50.834;6.286;2024-03-22T01:56:46;14.50;99.90
15143;DHT22;7672;50.834;6.286;2024-03-22T01:59:13;14.70;99.90
15143;DHT22;7672;50.834;6.286;2024-03-22T02:01:40;14.50;99.90
15143;DHT22;7672;50.834;6.286;2024-03-22T02:04:06;14.50;99.90
15143;DHT22;7672;50.834;6.286;2024-03-22T02:06:32;14.50;99.90
15143;DHT22;7672;50.834;6.286;2024-03-22T02:08:59;14.50;99.90
15143;DHT22;7672;50.834;6.286;2024-03-22T02:11:26;14.60;99.90
15143;DHT22;7672;50.834;6.286;2024-03-22T02:13:52;14.60;99.90
15143;DHT22;7672;50.834;6.286;2024-03-22T02:16:19;14.60;99.90
15143;DHT22;7672;50.834;6.286;2024-03-22T02:18:45;14.60;99.90
15143;DHT22;7672;50.834;6.286;2024-03-22T02:21:11;14.60;99.90
15143;DHT22;7672;50.834;6.286;2024-03-22T02:23:39;14.60;99.90
15143;DHT22;7672;50.834;6.286;2024-03-22T02:26:07;14.60;99.90
15143;DHT22;7672;50.834;6.286;2024-03-22T02:28:35;14.60;99.90
15143;DHT22;7672;50.834;6.286;2024-03-22T02:31:02;14.60;99.90
15143;DHT22;7672;50.834;6.286;2024-03-22T02:33:29;14.70;99.90
15143;DHT22;7672;50.834;6.286;2024-03-22T02:35:55;14.70;99.90
15143;DHT22;7672;50.834;6.286;2024-03-22T02:38:22;14.70;99.90
15143;DHT22;7672;50.834;6.286;2024-03-22T02:40:50;14.70;99.90
15143;DHT22;7672;50.834;6.286;2024-03-22T02:43:17;14.70;99.90
15143;DHT22;7672;50.834;6.286;2024-03-22T02:45:45;14.70;99.90
15143;DHT22;7672;50.834;6.286;2024-03-22T02:48:12;14.70;99.90
15143;DHT22;7672;50.834;6.286;2024-03-22T02:50:38;14.70;99.90
15143;DHT22;7672;50.834;6.286;2024-03-22T02:53:05;14.70;99.90
15143;DHT22;7672;50.834;6.286;2024-03-22T02:55:38;14.70;99.90
15143;DHT22;7672;50.834;6.286;2024-03-22T02:58:06;14.70;99.90
15143;DHT22;7672;50.834;6.286;2024-03-22T03:00:36;14.80;99.90
15143;DHT22;7672;50.834;6.286;2024-03-22T03:03:05;14.80;99.90
15143;DHT22;7672;50.834;6.286;2024-03-22T03:05:32;14.80;99.90
15143;DHT22;7672;50.834;6.286;2024-03-22T03:07:58;14.80;99.90
15143;DHT22;7672;50.834;6.286;2024-03-22T03:10:24;14.80;99.90
15143;DHT22;7672;50.834;6.286;2024-03-22T03:12:53;14.80;99.90
15143;DHT22;7672;50.834;6.286;2024-03-22T03:15:20;14.80;99.90
15143;DHT22;7672;50.834;6.286;2024-03-22T03:17:46;14.90;99.90
15143;DHT22;7672;50.834;6.286;2024-03-22T03:20:12;14.80;99.90
15143;DHT22;7672;50.834;6.286;2024-03-22T03:22:40;14.80;99.90
15143;DHT22;7672;50.834;6.286;2024-03-22T03:25:06;14.90;99.90
15143;DHT22;7672;50.834;6.286;2024-03-22T03:27:33;14.90;99.90
15143;DHT22;7672;50.834;6.286;2024-03-22T03:30:00;14.90;99.90
15143;DHT22;7672;50.834;6.286;2024-03-22T03:32:27;14.90;99.90
15143;DHT22;7672;50.834;6.286;2024-03-22T03:34:53;14.90;99.90
15143;DHT22;7672;50.834;6.286;2024-03-22T03:37:20;14.90;99.90
15143;DHT22;7672;50.834;6.286;2024-03-22T03:39:46;15.00;99.90
15143;DHT22;7672;50.834;6.286;2024-03-22T03:42:12;15.00;99.90
15143;DHT22;7672;50.834;6.286;2024-03-22T03:44:38;15.00;99.90
15143;DHT22;7672;50.834;6.286;2024-03-22T03:47:04;15.00;99.90
15143;DHT22;7672;50.834;6.286;2024-03-22T03:49:30;15.00;99.90
15143;DHT22;7672;50.834;6.286;2024-03-22T03:51:56;15.10;99.90
15143;DHT22;7672;50.834;6.286;2024-03-22T03:54:22;15.00;99.90
15143;DHT22;7672;50.834;6.286;2024-03-22T03:56:48;15.00;99.90
15143;DHT22;7672;50.834;6.286;2024-03-22T03:59:14;15.00;99.90
15143;DHT22;7672;50.834;6.286;2024-03-22T04:01:41;15.10;99.90
15143;DHT22;7672;50.834;6.286;2024-03-22T04:04:07;15.10;99.90
15143;DHT22;7672;50.834;6.286;2024-03-22T04:06:33;15.10;99.90
15143;DHT22;7672;50.834;6.286;2024-03-22T04:09:00;15.10;99.90
15143;DHT22;7672;50.834;6.286;2024-03-22T04:11:26;15.00;99.90
15143;DHT22;7672;50.834;6.286;2024-03-22T04:13:52;15.10;99.90
15143;DHT22;7672;50.834;6.286;2024-03-22T04:16:18;15.10;99.90
15143;DHT22;7672;50.834;6.286;2024-03-22T04:18:44;15.10;99.90
15143;DHT22;7672;50.834;6.286;2024-03-22T04:21:10;15.10;99.90
15143;DHT22;7672;50.834;6.286;2024-03-22T04:23:37;15.10;99.90
15143;DHT22;7672;50.834;6.286;2024-03-22T04:26:03;15.10;99.90
15143;DHT22;7672;50.834;6.286;2024-03-22T04:28:30;15.10;99.90
15143;DHT22;7672;50.834;6.286;2024-03-22T04:31:06;15.10;99.90
15143;DHT22;7672;50.834;6.286;2024-03-22T04:33:36;15.10;99.90
15143;DHT22;7672;50.834;6.286;2024-03-22T04:36:04;15.10;99.90
15143;DHT22;7672;50.834;6.286;2024-03-22T04:38:30;15.10;99.90
15143;DHT22;7672;50.834;6.286;2024-03-22T04:40:57;15.10;99.90
15143;DHT22;7672;50.834;6.286;2024-03-22T04:43:24;15.10;99.90
15143;DHT22;7672;50.834;6.286;2024-03-22T04:45:50;15.10;99.90
15143;DHT22;7672;50.834;6.286;2024-03-22T04:48:18;15.10;99.90
15143;DHT22;7672;50.834;6.286;2024-03-22T04:50:47;15.00;99.90
15143;DHT22;7672;50.834;6.286;2024-03-22T04:53:19;15.10;99.90
15143;DHT22;7672;50.834;6.286;2024-03-22T04:55:49;15.10;99.90
15143;DHT22;7672;50.834;6.286;2024-03-22T04:58:17;15.10;99.90
15143;DHT22;7672;50.834;6.286;2024-03-22T05:00:46;15.20;99.90
15143;DHT22;7672;50.834;6.286;2024-03-22T05:03:13;15.00;99.90
15143;DHT22;7672;50.834;6.286;2024-03-22T05:05:40;15.10;99.90
15143;DHT22;7672;50.834;6.286;2024-03-22T05:08:07;15.00;99.90
15143;DHT22;7672;50.834;6.286;2024-03-22T05:10:34;15.10;99.90
15143;DHT22;7672;50.834;6.286;2024-03-22T05:13:00;15.00;99.90
15143;DHT22;7672;50.834;6.286;2024-03-22T05:15:26;15.00;99.90
15143;DHT22;7672;50.834;6.286;2024-03-22T05:17:55;15.00;99.90
15143;DHT22;7672;50.834;6.286;2024-03-22T05:20:22;14.90;99.90
15143;DHT22;7672;50.834;6.286;2024-03-22T05:22:49;15.00;99.90
15143;DHT22;7672;50.834;6.286;2024-03-22T05:25:15;15.00;99.90
15143;DHT22;7672;50.834;6.286;2024-03-22T05:27:41;15.00;99.90
15143;DHT22;7672;50.834;6.286;2024-03-22T05:30:09;14.90;99.90
15143;DHT22;7672;50.834;6.286;2024-03-22T05:32:35;15.00;99.90
15143;DHT22;7672;50.834;6.286;2024-03-22T05:35:02;14.90;99.90
15143;DHT22;7672;50.834;6.286;2024-03-22T05:37:28;14.90;99.90
15143;DHT22;7672;50.834;6.286;2024-03-22T05:39:54;15.00;99.90
15143;DHT22;7672;50.834;6.286;2024-03-22T05:42:20;15.00;99.90
15143;DHT22;7672;50.834;6.286;2024-03-22T05:44:48;15.00;99.90
15143;DHT22;7672;50.834;6.286;2024-03-22T05:47:14;15.00;99.90
15143;DHT22;7672;50.834;6.286;2024-03-22T05:49:40;15.00;99.90
15143;DHT22;7672;50.834;6.286;2024-03-22T05:52:06;15.00;99.90
15143;DHT22;7672;50.834;6.286;2024-03-22T05:54:32;15.00;99.90
15143;DHT22;7672;50.834;6.286;2024-03-22T05:56:58;15.00;99.90
15143;DHT22;7672;50.834;6.286;2024-03-22T05:59:26;15.00;99.90
15143;DHT22;7672;50.834;6.286;2024-03-22T06:01:53;15.00;99.90
15143;DHT22;7672;50.834;6.286;2024-03-22T06:04:19;15.10;99.90
15143;DHT22;7672;50.834;6.286;2024-03-22T06:06:45;15.10;99.90
15143;DHT22;7672;50.834;6.286;2024-03-22T06:09:11;15.10;99.90
15143;DHT22;7672;50.834;6.286;2024-03-22T06:11:38;15.10;99.90
15143;DHT22;7672;50.834;6.286;2024-03-22T06:14:09;15.10;99.90
15143;DHT22;7672;50.834;6.286;2024-03-22T06:16:35;15.10;99.90
15143;DHT22;7672;50.834;6.286;2024-03-22T06:19:01;15.10;99.90
15143;DHT22;7672;50.834;6.286;2024-03-22T06:21:29;15.10;99.90
15143;DHT22;7672;50.834;6.286;2024-03-22T06:23:55;15.20;99.90
15143;DHT22;7672;50.834;6.286;2024-03-22T06:26:21;15.20;99.90
15143;DHT22;7672;50.834;6.286;2024-03-22T06:28:47;15.20;99.90
15143;DHT22;7672;50.834;6.286;2024-03-22T06:31:13;15.20;99.90
15143;DHT22;7672;50.834;6.286;2024-03-22T06:33:39;15.20;99.90
15143;DHT22;7672;50.834;6.286;2024-03-22T06:36:06;15.30;99.90
15143;DHT22;7672;50.834;6.286;2024-03-22T06:38:32;15.30;99.90
15143;DHT22;7672;50.834;6.286;2024-03-22T06:40:58;15.40;99.90
15143;DHT22;7672;50.834;6.286;2024-03-22T06:43:25;15.30;99.90
15143;DHT22;7672;50.834;6.286;2024-03-22T06:45:51;15.40;99.90
15143;DHT22;7672;50.834;6.286;2024-03-22T06:48:17;15.40;99.90
15143;DHT22;7672;50.834;6.286;2024-03-22T06:50:43;15.50;99.90
15143;DHT22;7672;50.834;6.286;2024-03-22T06:53:09;15.50;99.90
15143;DHT22;7672;50.834;6.286;2024-03-22T06:55:36;15.60;99.90
15143;DHT22;7672;50.834;6.286;2024-03-22T06:58:02;15.60;99.90
15143;DHT22;7672;50.834;6.286;2024-03-22T07:00:28;15.60;99.90
15143;DHT22;7672;50.834;6.286;2024-03-22T07:02:55;15.70;99.90
15143;DHT22;7672;50.834;6.286;2024-03-22T07:05:22;15.80;99.90
15143;DHT22;7672;50.834;6.286;2024-03-22T07:07:48;15.90;99.90
15143;DHT22;7672;50.834;6.286;2024-03-22T07:10:16;15.90;99.90
15143;DHT22;7672;50.834;6.286;2024-03-22T07:12:42;15.90;99.90
15143;DHT22;7672;50.834;6.286;2024-03-22T07:15:08;15.90;99.90
15143;DHT22;7672;50.834;6.286;2024-03-22T07:17:34;16.00;99.90
15143;DHT22;7672;50.834;6.286;2024-03-22T07:20:00;16.10;99.90
15143;DHT22;7672;50.834;6.286;2024-03-22T07:22:28;16.10;99.90
15143;DHT22;7672;50.834;6.286;2024-03-22T07:24:54;16.20;99.90
15143;DHT22;7672;50.834;6.286;2024-03-22T07:27:21;16.20;99.90
15143;DHT22;7672;50.834;6.286;2024-03-22T07:29:47;16.20;99.90
15143;DHT22;7672;50.834;6.286;2024-03-22T07:32:13;16.30;99.90
15143;DHT22;7672;50.834;6.286;2024-03-22T07:34:39;16.30;99.90
15143;DHT22;7672;50.834;6.286;2024-03-22T07:37:05;16.40;99.90
15143;DHT22;7672;50.834;6.286;2024-03-22T07:39:31;16.40;99.90
15143;DHT22;7672;50.834;6.286;2024-03-22T07:41:57;16.40;99.90
15143;DHT22;7672;50.834;6.286;2024-03-22T07:44:24;16.40;99.90
15143;DHT22;7672;50.834;6.286;2024-03-22T07:46:50;16.40;99.90
15143;DHT22;7672;50.834;6.286;2024-03-22T07:49:16;16.50;99.90
15143;DHT22;7672;50.834;6.286;2024-03-22T07:51:43;16.50;99.90
15143;DHT22;7672;50.834;6.286;2024-03-22T07:54:09;16.50;99.90
15143;DHT22;7672;50.834;6.286;2024-03-22T07:56:35;16.50;99.90
15143;DHT22;7672;50.834;6.286;2024-03-22T07:59:01;16.60;99.90
15143;DHT22;7672;50.834;6.286;2024-03-22T08:01:27;16.60;99.90
15143;DHT22;7672;50.834;6.286;2024-03-22T08:03:53;16.70;99.90
15143;DHT22;7672;50.834;6.286;2024-03-22T08:06:19;16.70;99.90
15143;DHT22;7672;50.834;6.286;2024-03-22T08:08:45;16.70;99.90
15143;DHT22;7672;50.834;6.286;2024-03-22T08:11:11;16.80;99.90
15143;DHT22;7672;50.834;6.286;2024-03-22T08:13:38;16.90;99.90
15143;DHT22;7672;50.834;6.286;2024-03-22T08:16:04;16.90;99.90
15143;DHT22;7672;50.834;6.286;2024-03-22T08:18:32;16.90;99.90
15143;DHT22;7672;50.834;6.286;2024-03-22T08:21:01;17.00;99.90
15143;DHT22;7672;50.834;6.286;2024-03-22T08:23:28;17.00;99.90
15143;DHT22;7672;50.834;6.286;2024-03-22T08:25:54;17.10;99.90
15143;DHT22;7672;50.834;6.286;2024-03-22T08:28:20;17.10;99.90
15143;DHT22;7672;50.834;6.286;2024-03-22T08:30:46;17.20;99.90
15143;DHT22;7672;50.834;6.286;2024-03-22T08:33:12;17.20;99.90
15143;DHT22;7672;50.834;6.286;2024-03-22T08:35:41;17.30;99.90
15143;DHT22;7672;50.834;6.286;2024-03-22T08:38:07;17.30;99.90
15143;DHT22;7672;50.834;6.286;2024-03-22T08:40:39;17.40;99.90
15143;DHT22;7672;50.834;6.286;2024-03-22T08:43:06;17.50;99.90
15143;DHT22;7672;50.834;6.286;2024-03-22T08:45:35;17.50;99.90
15143;DHT22;7672;50.834;6.286;2024-03-22T08:48:01;17.60;99.90
15143;DHT22;7672;50.834;6.286;2024-03-22T08:50:28;17.70;99.90
15143;DHT22;7672;50.834;6.286;2024-03-22T08:52:54;17.80;99.90
15143;DHT22;7672;50.834;6.286;2024-03-22T08:55:20;17.90;99.90
15143;DHT22;7672;50.834;6.286;2024-03-22T08:57:46;18.10;99.90
15143;DHT22;7672;50.834;6.286;2024-03-22T09:00:12;18.30;99.90
15143;DHT22;7672;50.834;6.286;2024-03-22T09:02:39;18.40;99.90
15143;DHT22;7672;50.834;6.286;2024-03-22T09:05:06;18.60;99.90
15143;DHT22;7672;50.834;6.286;2024-03-22T09:07:34;18.70;99.90
15143;DHT22;7672;50.834;6.286;2024-03-22T09:10:00;18.80;99.90
15143;DHT22;7672;50.834;6.286;2024-03-22T09:12:26;18.90;99.90
15143;DHT22;7672;50.834;6.286;2024-03-22T09:14:52;19.00;99.90
15143;DHT22;7672;50.834;6.286;2024-03-22T09:17:18;19.20;99.90
15143;DHT22;7672;50.834;6.286;2024-03-22T09:19:44;19.30;99.90
15143;DHT22;7672;50.834;6.286;2024-03-22T09:22:10;19.50;99.90
15143;DHT22;7672;50.834;6.286;2024-03-22T09:24:36;19.80;99.90
15143;DHT22;7672;50.834;6.286;2024-03-22T09:27:02;20.00;99.90
15143;DHT22;7672;50.834;6.286;2024-03-22T09:29:35;20.30;99.90
15143;DHT22;7672;50.834;6.286;2024-03-22T09:32:02;20.60;99.90
15143;DHT22;7672;50.834;6.286;2024-03-22T09:34:29;20.80;99.90
15143;DHT22;7672;50.834;6.286;2024-03-22T09:36:56;21.00;99.90
15143;DHT22;7672;50.834;6.286;2024-03-22T09:39:22;21.10;99.90
15143;DHT22;7672;50.834;6.286;2024-03-22T09:41:50;21.20;99.90
15143;DHT22;7672;50.834;6.286;2024-03-22T09:44:20;21.30;99.90
15143;DHT22;7672;50.834;6.286;2024-03-22T09:46:50;21.30;99.90
15143;DHT22;7672;50.834;6.286;2024-03-22T09:49:17;21.30;99.90
15143;DHT22;7672;50.834;6.286;2024-03-22T09:51:44;21.30;99.90
15143;DHT22;7672;50.834;6.286;2024-03-22T09:54:10;21.30;99.90
15143;DHT22;7672;50.834;6.286;2024-03-22T09:56:39;21.30;99.90
15143;DHT22;7672;50.834;6.286;2024-03-22T09:59:06;21.30;99.90
15143;DHT22;7672;50.834;6.286;2024-03-22T10:01:36;21.20;99.90
15143;DHT22;7672;50.834;6.286;2024-03-22T10:04:05;21.10;99.90
15143;DHT22;7672;50.834;6.286;2024-03-22T10:06:31;21.10;99.90
15143;DHT22;7672;50.834;6.286;2024-03-22T10:09:01;21.00;99.90
15143;DHT22;7672;50.834;6.286;2024-03-22T10:11:27;20.90;99.90
15143;DHT22;7672;50.834;6.286;2024-03-22T10:13:54;20.90;99.90
15143;DHT22;7672;50.834;6.286;2024-03-22T10:16:21;20.80;99.90
15143;DHT22;7672;50.834;6.286;2024-03-22T10:18:48;20.80;99.90
15143;DHT22;7672;50.834;6.286;2024-03-22T10:21:17;20.80;99.90
15143;DHT22;7672;50.834;6.286;2024-03-22T10:23:44;20.80;99.90
15143;DHT22;7672;50.834;6.286;2024-03-22T10:26:12;20.80;99.90
15143;DHT22;7672;50.834;6.286;2024-03-22T10:28:49;20.80;99.90
15143;DHT22;7672;50.834;6.286;2024-03-22T10:31:15;20.70;99.90
15143;DHT22;7672;50.834;6.286;2024-03-22T10:33:41;20.80;99.90
15143;DHT22;7672;50.834;6.286;2024-03-22T10:36:10;20.80;99.90
15143;DHT22;7672;50.834;6.286;2024-03-22T10:38:39;20.80;99.90
15143;DHT22;7672;50.834;6.286;2024-03-22T10:41:06;20.80;99.90
15143;DHT22;7672;50.834;6.286;2024-03-22T10:43:32;20.70;99.90
15143;DHT22;7672;50.834;6.286;2024-03-22T10:46:02;20.60;99.90
15143;DHT22;7672;50.834;6.286;2024-03-22T10:48:32;20.60;99.90
15143;DHT22;7672;50.834;6.286;2024-03-22T10:51:00;20.60;99.90
15143;DHT22;7672;50.834;6.286;2024-03-22T10:53:30;20.50;99.90
15143;DHT22;7672;50.834;6.286;2024-03-22T10:55:58;20.50;99.90
15143;DHT22;7672;50.834;6.286;2024-03-22T10:58:26;20.50;99.90
15143;DHT22;7672;50.834;6.286;2024-03-22T11:00:53;20.50;99.90
15143;DHT22;7672;50.834;6.286;2024-03-22T11:03:25;20.50;99.90
15143;DHT22;7672;50.834;6.286;2024-03-22T11:05:56;20.60;99.90
15143;DHT22;7672;50.834;6.286;2024-03-22T11:08:27;20.60;99.90
15143;DHT22;7672;50.834;6.286;2024-03-22T11:10:56;20.60;99.90
15143;DHT22;7672;50.834;6.286;2024-03-22T11:13:23;20.70;99.90
15143;DHT22;7672;50.834;6.286;2024-03-22T11:15:50;20.70;99.90
15143;DHT22;7672;50.834;6.286;2024-03-22T11:18:17;20.70;99.90
15143;DHT22;7672;50.834;6.286;2024-03-22T11:20:44;20.60;99.90
15143;DHT22;7672;50.834;6.286;2024-03-22T11:23:14;20.70;99.90
15143;DHT22;7672;50.834;6.286;2024-03-22T11:25:40;20.80;99.90
15143;DHT22;7672;50.834;6.286;2024-03-22T11:28:06;20.70;99.90
15143;DHT22;7672;50.834;6.286;2024-03-22T11:30:33;20.60;99.90
15143;DHT22;7672;50.834;6.286;2024-03-22T11:33:01;20.60;99.90
15143;DHT22;7672;50.834;6.286;2024-03-22T11:35:28;20.50;99.90
15143;DHT22;7672;50.834;6.286;2024-03-22T11:37:54;20.50;99.90
15143;DHT22;7672;50.834;6.286;2024-03-22T11:40:23;20.40;99.90
15143;DHT22;7672;50.834;6.286;2024-03-22T11:42:52;20.40;99.90
15143;DHT22;7672;50.834;6.286;2024-03-22T11:45:21;20.30;99.90
15143;DHT22;7672;50.834;6.286;2024-03-22T11:47:49;20.20;99.90
15143;DHT22;7672;50.834;6.286;2024-03-22T11:50:15;20.40;99.90
15143;DHT22;7672;50.834;6.286;2024-03-22T11:52:42;20.10;99.90
15143;DHT22;7672;50.834;6.286;2024-03-22T11:55:10;20.10;99.90
15143;DHT22;7672;50.834;6.286;2024-03-22T11:57:36;20.10;99.90
15143;DHT22;7672;50.834;6.286;2024-03-22T12:00:03;20.00;99.90
15143;DHT22;7672;50.834;6.286;2024-03-22T12:02:38;20.00;99.90
15143;DHT22;7672;50.834;6.286;2024-03-22T12:05:05;19.90;99.90
15143;DHT22;7672;50.834;6.286;2024-03-22T12:07:32;19.90;99.90
15143;DHT22;7672;50.834;6.286;2024-03-22T12:09:58;19.80;99.90
15143;DHT22;7672;50.834;6.286;2024-03-22T12:12:25;19.80;99.90
15143;DHT22;7672;50.834;6.286;2024-03-22T12:14:52;19.80;99.90
15143;DHT22;7672;50.834;6.286;2024-03-22T12:17:18;19.80;99.90
15143;DHT22;7672;50.834;6.286;2024-03-22T12:19:44;19.80;99.90
15143;DHT22;7672;50.834;6.286;2024-03-22T12:22:11;19.80;99.90
15143;DHT22;7672;50.834;6.286;2024-03-22T12:24:37;19.80;99.90
15143;DHT22;7672;50.834;6.286;2024-03-22T12:27:03;19.80;99.90
15143;DHT22;7672;50.834;6.286;2024-03-22T12:29:32;19.80;99.90
15143;DHT22;7672;50.834;6.286;2024-03-22T12:31:59;19.80;99.90
15143;DHT22;7672;50.834;6.286;2024-03-22T12:34:28;19.80;99.90
15143;DHT22;7672;50.834;6.286;2024-03-22T12:36:55;19.80;99.90
15143;DHT22;7672;50.834;6.286;2024-03-22T12:39:22;19.80;99.90
15143;DHT22;7672;50.834;6.286;2024-03-22T12:41:48;19.90;99.90
15143;DHT22;7672;50.834;6.286;2024-03-22T12:44:14;20.00;99.90
15143;DHT22;7672;50.834;6.286;2024-03-22T12:46:40;20.10;99.90
15143;DHT22;7672;50.834;6.286;2024-03-22T12:49:11;20.20;99.90
15143;DHT22;7672;50.834;6.286;2024-03-22T12:51:37;20.30;99.90
15143;DHT22;7672;50.834;6.286;2024-03-22T12:54:04;20.40;99.90
15143;DHT22;7672;50.834;6.286;2024-03-22T12:56:31;20.60;99.90
15143;DHT22;7672;50.834;6.286;2024-03-22T12:58:58;20.70;99.90
15143;DHT22;7672;50.834;6.286;2024-03-22T13:01:25;20.80;99.90
15143;DHT22;7672;50.834;6.286;2024-03-22T13:03:51;21.00;99.90
15143;DHT22;7672;50.834;6.286;2024-03-22T13:06:17;21.10;99.90
15143;DHT22;7672;50.834;6.286;2024-03-22T13:08:43;21.20;99.90
15143;DHT22;7672;50.834;6.286;2024-03-22T13:11:09;21.30;99.90
15143;DHT22;7672;50.834;6.286;2024-03-22T13:13:36;21.40;99.90
15143;DHT22;7672;50.834;6.286;2024-03-22T13:16:03;21.50;99.90
15143;DHT22;7672;50.834;6.286;2024-03-22T13:18:29;21.60;99.90
15143;DHT22;7672;50.834;6.286;2024-03-22T13:20:56;21.60;99.90
15143;DHT22;7672;50.834;6.286;2024-03-22T13:23:22;21.80;99.90
15143;DHT22;7672;50.834;6.286;2024-03-22T13:25:48;21.90;99.90
15143;DHT22;7672;50.834;6.286;2024-03-22T13:28:14;22.00;99.90
15143;DHT22;7672;50.834;6.286;2024-03-22T13:30:45;22.00;99.90
15143;DHT22;7672;50.834;6.286;2024-03-22T13:33:12;22.30;99.90
15143;DHT22;7672;50.834;6.286;2024-03-22T13:35:39;22.40;99.90
15143;DHT22;7672;50.834;6.286;2024-03-22T13:38:07;22.50;99.90
15143;DHT22;7672;50.834;6.286;2024-03-22T13:40:39;22.60;99.90
15143;DHT22;7672;50.834;6.286;2024-03-22T13:43:10;22.70;99.90
15143;DHT22;7672;50.834;6.286;2024-03-22T13:45:41;22.80;99.90
15143;DHT22;7672;50.834;6.286;2024-03-22T13:48:12;22.90;99.90
15143;DHT22;7672;50.834;6.286;2024-03-22T13:50:40;23.00;99.90
15143;DHT22;7672;50.834;6.286;2024-03-22T13:53:07;23.00;99.90
15143;DHT22;7672;50.834;6.286;2024-03-22T13:55:34;23.00;99.90
15143;DHT22;7672;50.834;6.286;2024-03-22T13:58:00;23.20;99.90
15143;DHT22;7672;50.834;6.286;2024-03-22T14:00:27;23.10;99.90
15143;DHT22;7672;50.834;6.286;2024-03-22T14:02:53;23.00;99.90
15143;DHT22;7672;50.834;6.286;2024-03-22T14:05:21;23.00;99.90
15143;DHT22;7672;50.834;6.286;2024-03-22T14:07:47;23.10;99.90
15143;DHT22;7672;50.834;6.286;2024-03-22T14:10:13;23.30;99.90
15143;DHT22;7672;50.834;6.286;2024-03-22T14:12:42;23.00;99.90
15143;DHT22;7672;50.834;6.286;2024-03-22T14:15:09;23.30;99.90
15143;DHT22;7672;50.834;6.286;2024-03-22T14:17:35;23.20;99.90
15143;DHT22;7672;50.834;6.286;2024-03-22T14:20:01;23.20;99.90
15143;DHT22;7672;50.834;6.286;2024-03-22T14:22:29;23.10;99.90
15143;DHT22;7672;50.834;6.286;2024-03-22T14:24:56;23.20;99.90
15143;DHT22;7672;50.834;6.286;2024-03-22T14:27:22;23.30;99.90
15143;DHT22;7672;50.834;6.286;2024-03-22T14:29:49;23.30;99.90
15143;DHT22;7672;50.834;6.286;2024-03-22T14:32:15;23.10;99.90
15143;DHT22;7672;50.834;6.286;2024-03-22T14:34:41;23.10;99.90
15143;DHT22;7672;50.834;6.286;2024-03-22T14:37:07;22.90;99.90
15143;DHT22;7672;50.834;6.286;2024-03-22T14:39:33;22.90;99.90
15143;DHT22;7672;50.834;6.286;2024-03-22T14:41:59;22.80;99.90
15143;DHT22;7672;50.834;6.286;2024-03-22T14:44:25;22.80;99.90
15143;DHT22;7672;50.834;6.286;2024-03-22T14:46:51;22.70;99.90
15143;DHT22;7672;50.834;6.286;2024-03-22T14:49:17;22.70;99.90
15143;DHT22;7672;50.834;6.286;2024-03-22T14:51:43;22.60;99.90
15143;DHT22;7672;50.834;6.286;2024-03-22T14:54:09;22.50;99.90
15143;DHT22;7672;50.834;6.286;2024-03-22T14:56:36;22.50;99.90
15143;DHT22;7672;50.834;6.286;2024-03-22T14:59:02;22.40;99.90
15143;DHT22;7672;50.834;6.286;2024-03-22T15:01:28;22.30;99.90
15143;DHT22;7672;50.834;6.286;2024-03-22T15:03:54;22.20;99.90
15143;DHT22;7672;50.834;6.286;2024-03-22T15:06:20;22.20;99.90
15143;DHT22;7672;50.834;6.286;2024-03-22T15:08:46;22.10;99.90
15143;DHT22;7672;50.834;6.286;2024-03-22T15:11:12;22.00;99.90
15143;DHT22;7672;50.834;6.286;2024-03-22T15:13:38;22.00;99.90
15143;DHT22;7672;50.834;6.286;2024-03-22T15:16:05;21.80;99.90
15143;DHT22;7672;50.834;6.286;2024-03-22T15:18:31;21.70;99.90
15143;DHT22;7672;50.834;6.286;2024-03-22T15:20:57;21.60;99.90
15143;DHT22;7672;50.834;6.286;2024-03-22T15:23:23;21.60;99.90
15143;DHT22;7672;50.834;6.286;2024-03-22T15:25:49;21.40;99.90
15143;DHT22;7672;50.834;6.286;2024-03-22T15:28:16;21.30;99.90
15143;DHT22;7672;50.834;6.286;2024-03-22T15:30:42;21.20;99.90
15143;DHT22;7672;50.834;6.286;2024-03-22T15:33:10;21.10;99.90
15143;DHT22;7672;50.834;6.286;2024-03-22T15:35:36;21.00;99.90
15143;DHT22;7672;50.834;6.286;2024-03-22T15:38:03;21.20;99.90
15143;DHT22;7672;50.834;6.286;2024-03-22T15:40:30;20.80;99.90
15143;DHT22;7672;50.834;6.286;2024-03-22T15:43:00;20.80;99.90